sensor_id;sensor_type;location;lat;lon;timestamp;P1;durP1;ratioP1;P2;durP2;ratioP2
31308;SDS011;17936;52.446;10.840;2022-10-15T00:01:15;6.30;;;3.70;;
31308;SDS011;17936;52.446;10.840;2022-10-15T00:03:42;7.13;;;4.07;;
31308;SDS011;17936;52.446;10.840;2022-10-15T00:06:10;7.47;;;3.78;;
31308;SDS011;17936;52.446;10.840;2022-10-15T00:08:38;8.48;;;4.05;;
31308;SDS011;17936;52.446;10.840;2022-10-15T00:11:09;5.80;;;3.83;;
31308;SDS011;17936;52.446;10.840;2022-10-15T00:13:38;5.45;;;4.07;;
31308;SDS011;17936;52.446;10.840;2022-10-15T00:16:06;6.35;;;4.30;;
31308;SDS011;17936;52.446;10.840;2022-10-15T00:18:33;5.72;;;3.92;;
31308;SDS011;17936;52.446;10.840;2022-10-15T00:20:59;7.38;;;4.10;;
31308;SDS011;17936;52.446;10.840;2022-10-15T00:23:25;6.88;;;4.13;;
31308;SDS011;17936;52.446;10.840;2022-10-15T00:25:59;7.22;;;4.07;;
31308;SDS011;17936;52.446;10.840;2022-10-15T00:28:26;7.93;;;3.67;;
31308;SDS011;17936;52.446;10.840;2022-10-15T00:30:51;8.68;;;4.38;;
31308;SDS011;17936;52.446;10.840;2022-10-15T00:33:23;6.90;;;4.60;;
31308;SDS011;17936;52.446;10.840;2022-10-15T00:35:56;5.50;;;3.80;;
31308;SDS011;17936;52.446;10.840;2022-10-15T00:38:26;5.15;;;3.67;;
31308;SDS011;17936;52.446;10.840;2022-10-15T00:40:51;5.93;;;3.78;;
31308;SDS011;17936;52.446;10.840;2022-10-15T00:43:33;4.90;;;3.63;;
31308;SDS011;17936;52.446;10.840;2022-10-15T00:48:47;7.32;;;4.00;;
31308;SDS011;17936;52.446;10.840;2022-10-15T00:51:16;5.47;;;3.70;;
31308;SDS011;17936;52.446;10.840;2022-10-15T00:53:43;8.77;;;3.28;;
31308;SDS011;17936;52.446;10.840;2022-10-15T00:56:09;5.70;;;3.95;;
31308;SDS011;17936;52.446;10.840;2022-10-15T00:58:36;6.28;;;4.28;;
31308;SDS011;17936;52.446;10.840;2022-10-15T01:01:02;5.35;;;3.67;;
31308;SDS011;17936;52.446;10.840;2022-10-15T01:03:27;6.32;;;4.32;;
31308;SDS011;17936;52.446;10.840;2022-10-15T01:05:53;4.78;;;3.90;;
31308;SDS011;17936;52.446;10.840;2022-10-15T01:08:19;8.65;;;3.70;;
31308;SDS011;17936;52.446;10.840;2022-10-15T01:13:59;5.10;;;3.70;;
31308;SDS011;17936;52.446;10.840;2022-10-15T01:21:50;9.75;;;4.70;;
31308;SDS011;17936;52.446;10.840;2022-10-15T01:24:34;7.63;;;4.22;;
31308;SDS011;17936;52.446;10.840;2022-10-15T01:27:31;7.22;;;4.63;;
31308;SDS011;17936;52.446;10.840;2022-10-15T01:32:56;6.73;;;4.43;;
31308;SDS011;17936;52.446;10.840;2022-10-15T01:35:30;5.70;;;3.95;;
31308;SDS011;17936;52.446;10.840;2022-10-15T01:38:25;5.97;;;4.40;;
31308;SDS011;17936;52.446;10.840;2022-10-15T01:41:00;8.18;;;4.95;;
31308;SDS011;17936;52.446;10.840;2022-10-15T01:43:47;5.70;;;4.32;;
31308;SDS011;17936;52.446;10.840;2022-10-15T01:46:23;7.10;;;4.65;;
31308;SDS011;17936;52.446;10.840;2022-10-15T01:49:23;6.60;;;4.50;;
31308;SDS011;17936;52.446;10.840;2022-10-15T01:51:53;8.98;;;5.50;;
31308;SDS011;17936;52.446;10.840;2022-10-15T01:54:21;7.45;;;5.30;;
31308;SDS011;17936;52.446;10.840;2022-10-15T01:56:49;7.78;;;5.43;;
31308;SDS011;17936;52.446;10.840;2022-10-15T01:59:17;7.95;;;5.30;;
31308;SDS011;17936;52.446;10.840;2022-10-15T02:01:46;7.72;;;5.10;;
31308;SDS011;17936;52.446;10.840;2022-10-15T02:06:45;8.73;;;5.53;;
31308;SDS011;17936;52.446;10.840;2022-10-15T02:09:16;6.97;;;5.03;;
31308;SDS011;17936;52.446;10.840;2022-10-15T02:14:36;6.93;;;4.93;;
31308;SDS011;17936;52.446;10.840;2022-10-15T02:17:11;7.72;;;4.95;;
31308;SDS011;17936;52.446;10.840;2022-10-15T02:19:43;7.43;;;4.97;;
31308;SDS011;17936;52.446;10.840;2022-10-15T02:22:31;7.65;;;4.97;;
31308;SDS011;17936;52.446;10.840;2022-10-15T02:25:05;8.95;;;5.15;;
31308;SDS011;17936;52.446;10.840;2022-10-15T02:27:39;12.82;;;5.80;;
31308;SDS011;17936;52.446;10.840;2022-10-15T02:30:08;10.50;;;5.88;;
31308;SDS011;17936;52.446;10.840;2022-10-15T02:32:36;10.10;;;5.57;;
31308;SDS011;17936;52.446;10.840;2022-10-15T02:35:04;7.57;;;5.38;;
31308;SDS011;17936;52.446;10.840;2022-10-15T02:37:32;8.65;;;6.03;;
31308;SDS011;17936;52.446;10.840;2022-10-15T02:39:59;9.43;;;5.57;;
31308;SDS011;17936;52.446;10.840;2022-10-15T02:42:25;9.73;;;5.90;;
31308;SDS011;17936;52.446;10.840;2022-10-15T02:44:51;8.80;;;6.47;;
31308;SDS011;17936;52.446;10.840;2022-10-15T02:47:16;9.18;;;6.10;;
31308;SDS011;17936;52.446;10.840;2022-10-15T02:49:42;17.88;;;7.03;;
31308;SDS011;17936;52.446;10.840;2022-10-15T02:52:07;11.13;;;5.88;;
31308;SDS011;17936;52.446;10.840;2022-10-15T02:54:33;13.77;;;6.32;;
31308;SDS011;17936;52.446;10.840;2022-10-15T02:56:58;9.70;;;6.22;;
31308;SDS011;17936;52.446;10.840;2022-10-15T02:59:24;7.95;;;5.97;;
31308;SDS011;17936;52.446;10.840;2022-10-15T03:01:49;9.75;;;6.38;;
31308;SDS011;17936;52.446;10.840;2022-10-15T03:04:15;10.25;;;5.72;;
31308;SDS011;17936;52.446;10.840;2022-10-15T03:06:40;8.32;;;5.78;;
31308;SDS011;17936;52.446;10.840;2022-10-15T03:09:06;11.27;;;6.28;;
31308;SDS011;17936;52.446;10.840;2022-10-15T03:11:31;8.13;;;5.57;;
31308;SDS011;17936;52.446;10.840;2022-10-15T03:13:57;8.40;;;5.88;;
31308;SDS011;17936;52.446;10.840;2022-10-15T03:16:22;8.18;;;5.72;;
31308;SDS011;17936;52.446;10.840;2022-10-15T03:18:48;8.93;;;6.05;;
31308;SDS011;17936;52.446;10.840;2022-10-15T03:21:13;10.25;;;5.70;;
31308;SDS011;17936;52.446;10.840;2022-10-15T03:23:39;8.93;;;6.43;;
31308;SDS011;17936;52.446;10.840;2022-10-15T03:26:05;8.98;;;6.35;;
31308;SDS011;17936;52.446;10.840;2022-10-15T03:28:30;7.10;;;5.50;;
31308;SDS011;17936;52.446;10.840;2022-10-15T03:30:56;7.65;;;5.47;;
31308;SDS011;17936;52.446;10.840;2022-10-15T03:33:21;7.93;;;5.97;;
31308;SDS011;17936;52.446;10.840;2022-10-15T03:35:47;7.10;;;5.22;;
31308;SDS011;17936;52.446;10.840;2022-10-15T03:38:12;8.50;;;5.90;;
31308;SDS011;17936;52.446;10.840;2022-10-15T03:40:38;9.10;;;6.28;;
31308;SDS011;17936;52.446;10.840;2022-10-15T03:43:03;8.50;;;6.10;;
31308;SDS011;17936;52.446;10.840;2022-10-15T03:45:29;10.52;;;6.00;;
31308;SDS011;17936;52.446;10.840;2022-10-15T03:47:54;9.07;;;5.82;;
31308;SDS011;17936;52.446;10.840;2022-10-15T03:50:19;9.55;;;6.05;;
31308;SDS011;17936;52.446;10.840;2022-10-15T03:52:45;12.80;;;6.75;;
31308;SDS011;17936;52.446;10.840;2022-10-15T03:55:10;9.00;;;5.93;;
31308;SDS011;17936;52.446;10.840;2022-10-15T03:57:36;12.18;;;5.95;;
31308;SDS011;17936;52.446;10.840;2022-10-15T04:00:03;8.10;;;5.70;;
31308;SDS011;17936;52.446;10.840;2022-10-15T04:02:30;10.07;;;6.00;;
31308;SDS011;17936;52.446;10.840;2022-10-15T04:04:55;9.13;;;6.43;;
31308;SDS011;17936;52.446;10.840;2022-10-15T04:07:21;9.43;;;6.15;;
31308;SDS011;17936;52.446;10.840;2022-10-15T04:09:48;8.68;;;6.03;;
31308;SDS011;17936;52.446;10.840;2022-10-15T04:12:14;9.40;;;6.25;;
31308;SDS011;17936;52.446;10.840;2022-10-15T04:14:40;8.40;;;5.88;;
31308;SDS011;17936;52.446;10.840;2022-10-15T04:17:06;7.53;;;6.00;;
31308;SDS011;17936;52.446;10.840;2022-10-15T04:19:32;8.57;;;6.10;;
31308;SDS011;17936;52.446;10.840;2022-10-15T04:21:57;8.77;;;6.28;;
31308;SDS011;17936;52.446;10.840;2022-10-15T04:24:23;8.93;;;6.28;;
31308;SDS011;17936;52.446;10.840;2022-10-15T04:26:49;10.90;;;6.20;;
31308;SDS011;17936;52.446;10.840;2022-10-15T04:29:15;8.82;;;6.50;;
31308;SDS011;17936;52.446;10.840;2022-10-15T04:31:40;14.15;;;6.40;;
31308;SDS011;17936;52.446;10.840;2022-10-15T04:34:06;9.05;;;6.13;;
31308;SDS011;17936;52.446;10.840;2022-10-15T04:36:32;11.48;;;6.55;;
31308;SDS011;17936;52.446;10.840;2022-10-15T04:38:58;10.57;;;6.60;;
31308;SDS011;17936;52.446;10.840;2022-10-15T04:41:24;9.35;;;6.55;;
31308;SDS011;17936;52.446;10.840;2022-10-15T04:43:49;13.27;;;7.65;;
31308;SDS011;17936;52.446;10.840;2022-10-15T04:46:15;11.00;;;7.43;;
31308;SDS011;17936;52.446;10.840;2022-10-15T04:48:40;10.82;;;6.82;;
31308;SDS011;17936;52.446;10.840;2022-10-15T04:51:06;12.13;;;6.85;;
31308;SDS011;17936;52.446;10.840;2022-10-15T04:53:33;10.20;;;7.13;;
31308;SDS011;17936;52.446;10.840;2022-10-15T04:56:03;10.70;;;7.07;;
31308;SDS011;17936;52.446;10.840;2022-10-15T04:58:31;10.75;;;7.07;;
31308;SDS011;17936;52.446;10.840;2022-10-15T05:01:04;12.93;;;7.38;;
31308;SDS011;17936;52.446;10.840;2022-10-15T05:03:31;17.25;;;7.72;;
31308;SDS011;17936;52.446;10.840;2022-10-15T05:06:01;10.77;;;7.65;;
31308;SDS011;17936;52.446;10.840;2022-10-15T05:08:28;13.10;;;7.78;;
31308;SDS011;17936;52.446;10.840;2022-10-15T05:10:54;15.48;;;9.15;;
31308;SDS011;17936;52.446;10.840;2022-10-15T05:13:23;17.25;;;9.25;;
31308;SDS011;17936;52.446;10.840;2022-10-15T05:15:49;14.70;;;9.68;;
31308;SDS011;17936;52.446;10.840;2022-10-15T05:18:14;15.38;;;9.82;;
31308;SDS011;17936;52.446;10.840;2022-10-15T05:20:40;15.63;;;10.25;;
31308;SDS011;17936;52.446;10.840;2022-10-15T05:23:05;14.95;;;9.57;;
31308;SDS011;17936;52.446;10.840;2022-10-15T05:25:31;16.40;;;10.02;;
31308;SDS011;17936;52.446;10.840;2022-10-15T05:27:56;16.88;;;9.82;;
31308;SDS011;17936;52.446;10.840;2022-10-15T05:30:22;17.05;;;10.45;;
31308;SDS011;17936;52.446;10.840;2022-10-15T05:32:50;15.45;;;9.57;;
31308;SDS011;17936;52.446;10.840;2022-10-15T05:35:17;14.52;;;9.85;;
31308;SDS011;17936;52.446;10.840;2022-10-15T05:37:42;15.75;;;9.32;;
31308;SDS011;17936;52.446;10.840;2022-10-15T05:40:08;17.70;;;11.07;;
31308;SDS011;17936;52.446;10.840;2022-10-15T05:42:34;15.45;;;10.10;;
31308;SDS011;17936;52.446;10.840;2022-10-15T05:44:59;17.80;;;10.75;;
31308;SDS011;17936;52.446;10.840;2022-10-15T05:47:24;16.05;;;10.30;;
31308;SDS011;17936;52.446;10.840;2022-10-15T05:49:50;17.52;;;11.05;;
31308;SDS011;17936;52.446;10.840;2022-10-15T05:52:15;20.63;;;10.32;;
31308;SDS011;17936;52.446;10.840;2022-10-15T05:54:41;17.40;;;11.52;;
31308;SDS011;17936;52.446;10.840;2022-10-15T05:57:06;15.50;;;10.13;;
31308;SDS011;17936;52.446;10.840;2022-10-15T05:59:32;21.63;;;11.27;;
31308;SDS011;17936;52.446;10.840;2022-10-15T06:01:57;18.30;;;11.52;;
31308;SDS011;17936;52.446;10.840;2022-10-15T06:04:23;21.05;;;11.85;;
31308;SDS011;17936;52.446;10.840;2022-10-15T06:06:48;18.88;;;11.73;;
31308;SDS011;17936;52.446;10.840;2022-10-15T06:09:14;18.30;;;11.80;;
31308;SDS011;17936;52.446;10.840;2022-10-15T06:11:39;17.40;;;11.73;;
31308;SDS011;17936;52.446;10.840;2022-10-15T06:14:06;19.50;;;11.25;;
31308;SDS011;17936;52.446;10.840;2022-10-15T06:16:31;19.23;;;12.10;;
31308;SDS011;17936;52.446;10.840;2022-10-15T06:18:57;19.00;;;12.25;;
31308;SDS011;17936;52.446;10.840;2022-10-15T06:21:23;22.25;;;13.13;;
31308;SDS011;17936;52.446;10.840;2022-10-15T06:23:49;21.63;;;13.73;;
31308;SDS011;17936;52.446;10.840;2022-10-15T06:26:14;22.30;;;12.45;;
31308;SDS011;17936;52.446;10.840;2022-10-15T06:28:40;20.13;;;12.88;;
31308;SDS011;17936;52.446;10.840;2022-10-15T06:31:05;20.02;;;12.98;;
31308;SDS011;17936;52.446;10.840;2022-10-15T06:33:31;16.35;;;10.98;;
31308;SDS011;17936;52.446;10.840;2022-10-15T06:36:01;17.60;;;11.32;;
31308;SDS011;17936;52.446;10.840;2022-10-15T06:38:28;16.30;;;9.98;;
31308;SDS011;17936;52.446;10.840;2022-10-15T06:40:53;19.33;;;11.18;;
31308;SDS011;17936;52.446;10.840;2022-10-15T06:43:19;21.58;;;11.30;;
31308;SDS011;17936;52.446;10.840;2022-10-15T06:45:44;16.10;;;9.60;;
31308;SDS011;17936;52.446;10.840;2022-10-15T06:48:10;18.05;;;9.05;;
31308;SDS011;17936;52.446;10.840;2022-10-15T06:50:36;12.52;;;8.57;;
31308;SDS011;17936;52.446;10.840;2022-10-15T06:53:02;18.38;;;9.48;;
31308;SDS011;17936;52.446;10.840;2022-10-15T06:55:28;17.63;;;9.20;;
31308;SDS011;17936;52.446;10.840;2022-10-15T06:57:54;14.55;;;8.65;;
31308;SDS011;17936;52.446;10.840;2022-10-15T07:00:20;15.73;;;8.82;;
31308;SDS011;17936;52.446;10.840;2022-10-15T07:02:47;13.88;;;8.18;;
31308;SDS011;17936;52.446;10.840;2022-10-15T07:05:13;13.05;;;8.35;;
31308;SDS011;17936;52.446;10.840;2022-10-15T07:07:38;13.30;;;8.20;;
31308;SDS011;17936;52.446;10.840;2022-10-15T07:10:04;12.77;;;8.50;;
31308;SDS011;17936;52.446;10.840;2022-10-15T07:12:30;12.55;;;7.82;;
31308;SDS011;17936;52.446;10.840;2022-10-15T07:14:56;11.85;;;8.63;;
31308;SDS011;17936;52.446;10.840;2022-10-15T07:17:21;15.10;;;9.57;;
31308;SDS011;17936;52.446;10.840;2022-10-15T07:19:47;21.33;;;9.25;;
31308;SDS011;17936;52.446;10.840;2022-10-15T07:22:12;13.00;;;8.82;;
31308;SDS011;17936;52.446;10.840;2022-10-15T07:24:38;13.40;;;8.95;;
31308;SDS011;17936;52.446;10.840;2022-10-15T07:27:03;15.68;;;10.75;;
31308;SDS011;17936;52.446;10.840;2022-10-15T07:29:29;15.52;;;10.32;;
31308;SDS011;17936;52.446;10.840;2022-10-15T07:31:55;18.38;;;9.52;;
31308;SDS011;17936;52.446;10.840;2022-10-15T07:34:21;13.93;;;9.20;;
31308;SDS011;17936;52.446;10.840;2022-10-15T07:36:46;14.77;;;9.98;;
31308;SDS011;17936;52.446;10.840;2022-10-15T07:39:12;19.05;;;10.65;;
31308;SDS011;17936;52.446;10.840;2022-10-15T07:41:37;18.77;;;11.48;;
31308;SDS011;17936;52.446;10.840;2022-10-15T07:44:05;18.63;;;11.80;;
31308;SDS011;17936;52.446;10.840;2022-10-15T07:46:30;21.23;;;13.23;;
31308;SDS011;17936;52.446;10.840;2022-10-15T07:48:56;28.67;;;17.52;;
31308;SDS011;17936;52.446;10.840;2022-10-15T07:51:21;24.58;;;15.20;;
31308;SDS011;17936;52.446;10.840;2022-10-15T07:53:47;26.25;;;15.50;;
31308;SDS011;17936;52.446;10.840;2022-10-15T07:56:13;27.92;;;16.90;;
31308;SDS011;17936;52.446;10.840;2022-10-15T07:58:40;30.30;;;19.08;;
31308;SDS011;17936;52.446;10.840;2022-10-15T08:01:07;28.38;;;17.52;;
31308;SDS011;17936;52.446;10.840;2022-10-15T08:03:35;31.08;;;18.48;;
31308;SDS011;17936;52.446;10.840;2022-10-15T08:06:02;25.70;;;16.60;;
31308;SDS011;17936;52.446;10.840;2022-10-15T08:08:29;28.25;;;17.02;;
31308;SDS011;17936;52.446;10.840;2022-10-15T08:10:55;27.08;;;17.65;;
31308;SDS011;17936;52.446;10.840;2022-10-15T08:13:21;23.88;;;16.73;;
31308;SDS011;17936;52.446;10.840;2022-10-15T08:15:47;26.08;;;16.67;;
31308;SDS011;17936;52.446;10.840;2022-10-15T08:18:13;28.45;;;17.77;;
31308;SDS011;17936;52.446;10.840;2022-10-15T08:20:39;31.52;;;17.65;;
31308;SDS011;17936;52.446;10.840;2022-10-15T08:36:06;26.38;;;17.73;;
31308;SDS011;17936;52.446;10.840;2022-10-15T08:38:32;23.40;;;17.02;;
31308;SDS011;17936;52.446;10.840;2022-10-15T08:40:59;23.70;;;16.77;;
31308;SDS011;17936;52.446;10.840;2022-10-15T08:43:43;23.83;;;16.02;;
31308;SDS011;17936;52.446;10.840;2022-10-15T08:46:12;23.70;;;16.48;;
31308;SDS011;17936;52.446;10.840;2022-10-15T08:48:48;28.15;;;16.52;;
31308;SDS011;17936;52.446;10.840;2022-10-15T08:51:18;26.17;;;15.48;;
31308;SDS011;17936;52.446;10.840;2022-10-15T08:53:47;25.02;;;15.63;;
31308;SDS011;17936;52.446;10.840;2022-10-15T08:56:18;26.63;;;16.23;;
31308;SDS011;17936;52.446;10.840;2022-10-15T08:59:14;25.42;;;16.48;;
31308;SDS011;17936;52.446;10.840;2022-10-15T09:01:56;24.27;;;16.17;;
31308;SDS011;17936;52.446;10.840;2022-10-15T09:07:02;24.40;;;16.42;;
31308;SDS011;17936;52.446;10.840;2022-10-15T09:09:51;25.48;;;16.30;;
31308;SDS011;17936;52.446;10.840;2022-10-15T09:15:11;25.05;;;17.58;;
31308;SDS011;17936;52.446;10.840;2022-10-15T09:17:40;26.05;;;16.42;;
31308;SDS011;17936;52.446;10.840;2022-10-15T09:20:20;24.48;;;15.65;;
31308;SDS011;17936;52.446;10.840;2022-10-15T09:22:50;24.88;;;15.95;;
31308;SDS011;17936;52.446;10.840;2022-10-15T09:25:20;25.48;;;16.42;;
31308;SDS011;17936;52.446;10.840;2022-10-15T09:27:47;21.65;;;15.02;;
31308;SDS011;17936;52.446;10.840;2022-10-15T09:30:23;21.50;;;14.50;;
31308;SDS011;17936;52.446;10.840;2022-10-15T09:44:33;21.30;;;14.63;;
31308;SDS011;17936;52.446;10.840;2022-10-15T09:49:51;23.70;;;14.05;;
31308;SDS011;17936;52.446;10.840;2022-10-15T09:58:18;22.00;;;14.63;;
31308;SDS011;17936;52.446;10.840;2022-10-15T10:00:54;19.90;;;13.77;;
31308;SDS011;17936;52.446;10.840;2022-10-15T10:03:22;19.33;;;13.15;;
31308;SDS011;17936;52.446;10.840;2022-10-15T10:05:50;20.33;;;13.93;;
31308;SDS011;17936;52.446;10.840;2022-10-15T10:08:24;18.70;;;12.98;;
31308;SDS011;17936;52.446;10.840;2022-10-15T10:11:02;19.52;;;13.10;;
31308;SDS011;17936;52.446;10.840;2022-10-15T10:13:31;19.05;;;12.23;;
31308;SDS011;17936;52.446;10.840;2022-10-15T10:16:01;18.05;;;12.25;;
31308;SDS011;17936;52.446;10.840;2022-10-15T10:18:29;17.75;;;11.98;;
31308;SDS011;17936;52.446;10.840;2022-10-15T10:21:00;16.80;;;11.75;;
31308;SDS011;17936;52.446;10.840;2022-10-15T10:26:03;15.77;;;11.38;;
31308;SDS011;17936;52.446;10.840;2022-10-15T10:31:14;16.90;;;10.68;;
31308;SDS011;17936;52.446;10.840;2022-10-15T10:33:46;13.93;;;10.25;;
31308;SDS011;17936;52.446;10.840;2022-10-15T10:36:20;15.65;;;9.93;;
31308;SDS011;17936;52.446;10.840;2022-10-15T10:38:54;16.70;;;9.48;;
31308;SDS011;17936;52.446;10.840;2022-10-15T10:44:32;11.98;;;8.70;;
31308;SDS011;17936;52.446;10.840;2022-10-15T10:49:42;10.45;;;7.50;;
31308;SDS011;17936;52.446;10.840;2022-10-15T10:52:23;12.38;;;7.78;;
31308;SDS011;17936;52.446;10.840;2022-10-15T10:57:36;11.43;;;7.68;;
31308;SDS011;17936;52.446;10.840;2022-10-15T11:00:17;11.40;;;8.27;;
31308;SDS011;17936;52.446;10.840;2022-10-15T11:05:12;13.35;;;8.70;;
31308;SDS011;17936;52.446;10.840;2022-10-15T11:07:49;11.55;;;8.15;;
31308;SDS011;17936;52.446;10.840;2022-10-15T11:11:09;12.15;;;8.43;;
31308;SDS011;17936;52.446;10.840;2022-10-15T11:13:56;13.88;;;8.30;;
31308;SDS011;17936;52.446;10.840;2022-10-15T11:16:33;11.85;;;8.27;;
31308;SDS011;17936;52.446;10.840;2022-10-15T11:19:10;11.70;;;8.45;;
31308;SDS011;17936;52.446;10.840;2022-10-15T11:22:10;11.85;;;8.25;;
31308;SDS011;17936;52.446;10.840;2022-10-15T11:24:58;11.70;;;7.22;;
31308;SDS011;17936;52.446;10.840;2022-10-15T11:30:25;9.75;;;7.38;;
31308;SDS011;17936;52.446;10.840;2022-10-15T11:38:40;9.90;;;7.43;;
31308;SDS011;17936;52.446;10.840;2022-10-15T11:41:35;16.77;;;6.78;;
31308;SDS011;17936;52.446;10.840;2022-10-15T11:46:50;9.77;;;7.28;;
31308;SDS011;17936;52.446;10.840;2022-10-15T11:52:29;8.98;;;5.82;;
31308;SDS011;17936;52.446;10.840;2022-10-15T11:55:18;6.60;;;5.40;;
31308;SDS011;17936;52.446;10.840;2022-10-15T11:57:48;9.53;;;6.03;;
31308;SDS011;17936;52.446;10.840;2022-10-15T12:02:56;10.95;;;6.18;;
31308;SDS011;17936;52.446;10.840;2022-10-15T12:05:32;9.73;;;5.70;;
31308;SDS011;17936;52.446;10.840;2022-10-15T12:08:01;8.43;;;5.75;;
31308;SDS011;17936;52.446;10.840;2022-10-15T12:16:03;5.47;;;4.25;;
31308;SDS011;17936;52.446;10.840;2022-10-15T12:18:46;5.75;;;3.97;;
31308;SDS011;17936;52.446;10.840;2022-10-15T12:21:27;5.35;;;3.25;;
31308;SDS011;17936;52.446;10.840;2022-10-15T12:23:57;6.07;;;4.20;;
31308;SDS011;17936;52.446;10.840;2022-10-15T12:28:51;5.50;;;4.15;;
31308;SDS011;17936;52.446;10.840;2022-10-15T12:31:19;5.72;;;4.10;;
31308;SDS011;17936;52.446;10.840;2022-10-15T12:33:52;5.22;;;4.03;;
31308;SDS011;17936;52.446;10.840;2022-10-15T12:36:20;4.97;;;3.28;;
31308;SDS011;17936;52.446;10.840;2022-10-15T12:38:58;4.68;;;3.22;;
31308;SDS011;17936;52.446;10.840;2022-10-15T12:41:36;5.28;;;3.60;;
31308;SDS011;17936;52.446;10.840;2022-10-15T12:44:04;5.03;;;3.25;;
31308;SDS011;17936;52.446;10.840;2022-10-15T12:46:35;4.95;;;2.80;;
31308;SDS011;17936;52.446;10.840;2022-10-15T12:49:44;4.63;;;2.78;;
31308;SDS011;17936;52.446;10.840;2022-10-15T12:51:58;3.05;;;2.45;;
31308;SDS011;17936;52.446;10.840;2022-10-15T12:54:31;2.60;;;2.08;;
31308;SDS011;17936;52.446;10.840;2022-10-15T12:57:13;3.63;;;2.05;;
31308;SDS011;17936;52.446;10.840;2022-10-15T13:00:02;4.43;;;2.20;;
31308;SDS011;17936;52.446;10.840;2022-10-15T13:03:07;2.10;;;1.60;;
31308;SDS011;17936;52.446;10.840;2022-10-15T13:05:38;2.22;;;1.40;;
31308;SDS011;17936;52.446;10.840;2022-10-15T13:08:04;2.00;;;1.40;;
31308;SDS011;17936;52.446;10.840;2022-10-15T13:10:53;2.25;;;1.10;;
31308;SDS011;17936;52.446;10.840;2022-10-15T13:13:28;0.95;;;0.73;;
31308;SDS011;17936;52.446;10.840;2022-10-15T13:15:58;0.80;;;0.80;;
31308;SDS011;17936;52.446;10.840;2022-10-15T13:18:25;2.83;;;0.98;;
31308;SDS011;17936;52.446;10.840;2022-10-15T13:20:53;0.93;;;0.82;;
31308;SDS011;17936;52.446;10.840;2022-10-15T13:25:49;0.50;;;0.50;;
31308;SDS011;17936;52.446;10.840;2022-10-15T13:28:30;2.03;;;0.80;;
31308;SDS011;17936;52.446;10.840;2022-10-15T13:30:58;1.23;;;0.80;;
31308;SDS011;17936;52.446;10.840;2022-10-15T13:33:26;1.48;;;0.85;;
31308;SDS011;17936;52.446;10.840;2022-10-15T13:35:52;1.83;;;1.15;;
31308;SDS011;17936;52.446;10.840;2022-10-15T13:38:22;1.60;;;1.15;;
31308;SDS011;17936;52.446;10.840;2022-10-15T13:40:50;3.58;;;1.35;;
31308;SDS011;17936;52.446;10.840;2022-10-15T13:43:19;3.60;;;1.30;;
31308;SDS011;17936;52.446;10.840;2022-10-15T13:45:53;2.90;;;1.38;;
31308;SDS011;17936;52.446;10.840;2022-10-15T13:48:24;2.47;;;1.55;;
31308;SDS011;17936;52.446;10.840;2022-10-15T13:50:55;2.10;;;1.80;;
31308;SDS011;17936;52.446;10.840;2022-10-15T13:53:29;4.32;;;1.90;;
31308;SDS011;17936;52.446;10.840;2022-10-15T13:56:00;3.00;;;1.98;;
31308;SDS011;17936;52.446;10.840;2022-10-15T13:58:34;2.05;;;1.50;;
31308;SDS011;17936;52.446;10.840;2022-10-15T14:01:14;4.63;;;1.73;;
31308;SDS011;17936;52.446;10.840;2022-10-15T14:03:58;1.73;;;1.52;;
31308;SDS011;17936;52.446;10.840;2022-10-15T14:06:26;3.30;;;1.98;;
31308;SDS011;17936;52.446;10.840;2022-10-15T14:08:56;3.53;;;2.28;;
31308;SDS011;17936;52.446;10.840;2022-10-15T14:11:24;2.47;;;2.00;;
31308;SDS011;17936;52.446;10.840;2022-10-15T14:13:54;3.63;;;2.20;;
31308;SDS011;17936;52.446;10.840;2022-10-15T14:16:23;2.75;;;1.88;;
31308;SDS011;17936;52.446;10.840;2022-10-15T14:19:07;3.33;;;1.83;;
31308;SDS011;17936;52.446;10.840;2022-10-15T14:21:35;3.47;;;2.03;;
31308;SDS011;17936;52.446;10.840;2022-10-15T14:26:45;3.08;;;2.35;;
31308;SDS011;17936;52.446;10.840;2022-10-15T14:29:25;3.25;;;2.45;;
31308;SDS011;17936;52.446;10.840;2022-10-15T14:32:24;4.05;;;2.28;;
31308;SDS011;17936;52.446;10.840;2022-10-15T14:34:52;5.00;;;2.80;;
31308;SDS011;17936;52.446;10.840;2022-10-15T14:43:13;6.13;;;2.00;;
31308;SDS011;17936;52.446;10.840;2022-10-15T14:45:39;2.92;;;2.00;;
31308;SDS011;17936;52.446;10.840;2022-10-15T14:48:16;3.33;;;2.08;;
31308;SDS011;17936;52.446;10.840;2022-10-15T14:50:46;3.50;;;2.08;;
31308;SDS011;17936;52.446;10.840;2022-10-15T14:53:16;3.58;;;2.35;;
31308;SDS011;17936;52.446;10.840;2022-10-15T14:56:00;4.70;;;1.90;;
31308;SDS011;17936;52.446;10.840;2022-10-15T14:58:46;2.15;;;1.55;;
31308;SDS011;17936;52.446;10.840;2022-10-15T15:01:16;2.28;;;1.50;;
31308;SDS011;17936;52.446;10.840;2022-10-15T15:03:50;3.50;;;1.60;;
31308;SDS011;17936;52.446;10.840;2022-10-15T15:06:17;2.25;;;1.23;;
31308;SDS011;17936;52.446;10.840;2022-10-15T15:08:43;2.38;;;1.27;;
31308;SDS011;17936;52.446;10.840;2022-10-15T15:11:09;1.55;;;1.23;;
31308;SDS011;17936;52.446;10.840;2022-10-15T15:13:39;1.98;;;1.60;;
31308;SDS011;17936;52.446;10.840;2022-10-15T15:16:08;1.52;;;1.13;;
31308;SDS011;17936;52.446;10.840;2022-10-15T15:18:36;2.60;;;1.27;;
31308;SDS011;17936;52.446;10.840;2022-10-15T15:21:02;1.98;;;1.10;;
31308;SDS011;17936;52.446;10.840;2022-10-15T15:23:34;1.67;;;1.15;;
31308;SDS011;17936;52.446;10.840;2022-10-15T15:26:00;2.67;;;1.30;;
31308;SDS011;17936;52.446;10.840;2022-10-15T15:28:27;1.10;;;0.90;;
31308;SDS011;17936;52.446;10.840;2022-10-15T15:30:57;3.83;;;1.10;;
31308;SDS011;17936;52.446;10.840;2022-10-15T15:33:25;3.87;;;1.00;;
31308;SDS011;17936;52.446;10.840;2022-10-15T15:36:00;1.85;;;1.10;;
31308;SDS011;17936;52.446;10.840;2022-10-15T15:38:27;2.67;;;1.30;;
31308;SDS011;17936;52.446;10.840;2022-10-15T15:41:17;1.48;;;1.00;;
31308;SDS011;17936;52.446;10.840;2022-10-15T15:43:43;1.77;;;0.93;;
31308;SDS011;17936;52.446;10.840;2022-10-15T15:46:09;1.85;;;1.17;;
31308;SDS011;17936;52.446;10.840;2022-10-15T15:48:35;2.08;;;1.05;;
31308;SDS011;17936;52.446;10.840;2022-10-15T15:51:02;5.70;;;1.10;;
31308;SDS011;17936;52.446;10.840;2022-10-15T15:53:29;1.30;;;0.85;;
31308;SDS011;17936;52.446;10.840;2022-10-15T15:55:55;3.50;;;1.17;;
31308;SDS011;17936;52.446;10.840;2022-10-15T15:58:20;2.78;;;1.20;;
31308;SDS011;17936;52.446;10.840;2022-10-15T16:00:46;2.45;;;1.00;;
31308;SDS011;17936;52.446;10.840;2022-10-15T16:03:12;4.90;;;1.10;;
31308;SDS011;17936;52.446;10.840;2022-10-15T16:05:38;1.73;;;0.90;;
31308;SDS011;17936;52.446;10.840;2022-10-15T16:08:04;2.88;;;0.70;;
31308;SDS011;17936;52.446;10.840;2022-10-15T16:10:31;3.65;;;0.90;;
31308;SDS011;17936;52.446;10.840;2022-10-15T16:12:56;2.05;;;1.13;;
31308;SDS011;17936;52.446;10.840;2022-10-15T16:15:22;3.10;;;1.20;;
31308;SDS011;17936;52.446;10.840;2022-10-15T16:17:47;1.77;;;0.98;;
31308;SDS011;17936;52.446;10.840;2022-10-15T16:20:13;5.28;;;0.90;;
31308;SDS011;17936;52.446;10.840;2022-10-15T16:22:39;1.10;;;0.65;;
31308;SDS011;17936;52.446;10.840;2022-10-15T16:25:04;3.58;;;1.10;;
31308;SDS011;17936;52.446;10.840;2022-10-15T16:27:30;2.90;;;1.02;;
31308;SDS011;17936;52.446;10.840;2022-10-15T16:29:58;1.52;;;0.90;;
31308;SDS011;17936;52.446;10.840;2022-10-15T16:32:25;4.78;;;0.90;;